createdAt,value
2022-12-03T00:03:20.665Z,14.20
2022-12-03T00:08:22.244Z,15.02
2022-12-03T00:13:23.800Z,13.80
2022-12-03T00:18:25.465Z,14.10
2022-12-03T00:23:26.956Z,12.73
2022-12-03T00:28:28.420Z,12.15
2022-12-03T00:33:30.064Z,10.10
2022-12-03T00:38:31.525Z,5.30
2022-12-03T00:43:33.070Z,5.50
2022-12-03T00:48:34.783Z,4.50
2022-12-03T00:53:36.292Z,5.17
2022-12-03T00:58:37.879Z,4.57
2022-12-03T01:03:39.412Z,5.90
2022-12-03T01:08:40.912Z,4.93
2022-12-03T01:13:42.366Z,5.50
2022-12-03T01:18:46.141Z,4.63
2022-12-03T01:23:47.628Z,4.87
2022-12-03T01:28:49.083Z,5.07
2022-12-03T01:33:50.529Z,4.87
2022-12-03T01:38:52.035Z,5.17
2022-12-03T01:43:55.220Z,5.53
2022-12-03T01:48:56.771Z,5.93
2022-12-03T01:53:59.556Z,5.97
2022-12-03T01:59:01.073Z,7.27
2022-12-03T02:04:02.627Z,7.20
2022-12-03T02:09:04.354Z,6.90
2022-12-03T02:14:10.484Z,7.45
2022-12-03T02:19:31.920Z,7.20
2022-12-03T02:24:55.661Z,8.10
2022-12-03T02:29:57.285Z,7.93
2022-12-03T02:34:58.809Z,6.83
2022-12-03T02:40:04.797Z,7.73
2022-12-03T02:45:14.905Z,7.97
2022-12-03T02:50:20.645Z,8.00
2022-12-03T02:55:23.494Z,7.30
2022-12-03T03:00:25.126Z,8.63
2022-12-03T03:05:26.853Z,8.13
2022-12-03T03:10:30.088Z,7.90
2022-12-03T03:15:31.534Z,8.43
2022-12-03T03:20:33.061Z,9.47
2022-12-03T03:25:34.622Z,8.20
2022-12-03T03:30:38.671Z,8.03
2022-12-03T03:35:40.739Z,7.80
2022-12-03T03:40:42.539Z,7.67
2022-12-03T03:45:44.482Z,8.23
2022-12-03T03:50:47.106Z,7.97
2022-12-03T03:55:49.075Z,8.43
2022-12-03T04:00:51.771Z,8.57
2022-12-03T04:05:53.406Z,7.87
2022-12-03T04:11:13.454Z,8.13
2022-12-03T04:16:14.962Z,8.57
2022-12-03T04:21:40.471Z,8.43
2022-12-03T04:27:00.487Z,8.13
2022-12-03T04:32:20.823Z,8.40
2022-12-03T04:37:22.391Z,9.03
2022-12-03T04:42:23.987Z,8.47
2022-12-03T04:47:25.517Z,9.20
2022-12-03T04:52:26.972Z,8.43
2022-12-03T04:57:28.459Z,8.40
2022-12-03T05:02:29.956Z,9.20
2022-12-03T05:07:31.551Z,9.97
2022-12-03T05:12:33.144Z,13.13
2022-12-03T05:17:34.806Z,13.60
2022-12-03T05:22:36.256Z,14.40
2022-12-03T05:27:37.787Z,13.83
2022-12-03T05:32:39.318Z,13.67
2022-12-03T05:37:40.808Z,14.00
2022-12-03T05:42:54.213Z,14.80
2022-12-03T05:47:56.904Z,13.90
2022-12-03T05:52:58.796Z,14.33
2022-12-03T05:58:00.461Z,14.60
2022-12-03T06:03:02.854Z,15.40
2022-12-03T06:08:04.655Z,14.30
2022-12-03T06:13:06.170Z,16.10
2022-12-03T06:18:07.635Z,15.13
2022-12-03T06:23:09.238Z,14.87
2022-12-03T06:28:10.780Z,14.57
2022-12-03T06:33:12.226Z,13.10
2022-12-03T06:38:13.721Z,13.97
2022-12-03T06:43:15.380Z,12.73
2022-12-03T06:48:16.937Z,14.33
2022-12-03T06:53:18.592Z,13.60
2022-12-03T06:58:21.265Z,12.53
2022-12-03T07:03:22.854Z,13.57
2022-12-03T07:08:24.398Z,13.50
2022-12-03T07:13:25.853Z,14.10
2022-12-03T07:18:27.285Z,14.60
2022-12-03T07:23:28.729Z,14.87
2022-12-03T07:28:30.204Z,14.43
2022-12-03T07:33:31.747Z,13.20
2022-12-03T07:38:33.205Z,13.17
2022-12-03T07:43:34.857Z,15.33
2022-12-03T07:48:36.536Z,14.37
2022-12-03T07:53:38.309Z,14.13
2022-12-03T07:58:39.979Z,16.03
2022-12-03T08:03:42.946Z,16.80
2022-12-03T08:08:44.525Z,16.83
2022-12-03T08:13:46.087Z,15.57
2022-12-03T08:18:49.520Z,15.00
2022-12-03T08:23:51.010Z,15.93
2022-12-03T08:28:53.383Z,15.27
2022-12-03T08:34:06.591Z,14.03
2022-12-03T08:39:29.278Z,14.93
2022-12-03T08:44:38.418Z,15.97
2022-12-03T08:49:40.935Z,16.00
2022-12-03T08:54:43.697Z,15.77
2022-12-03T08:59:45.857Z,14.43
2022-12-03T09:04:47.511Z,16.50
2022-12-03T09:09:49.015Z,15.90
2022-12-03T09:14:50.467Z,15.00
2022-12-03T09:19:52.117Z,15.90
2022-12-03T09:25:08.919Z,17.43
2022-12-03T09:30:10.859Z,15.03
2022-12-03T09:35:12.680Z,15.27
2022-12-03T09:40:14.452Z,16.20
2022-12-03T09:45:16.605Z,15.80
2022-12-03T09:50:24.458Z,15.93
2022-12-03T09:55:27.800Z,15.83
2022-12-03T10:00:30.601Z,17.50
2022-12-03T10:05:33.457Z,15.97
2022-12-03T10:10:35.675Z,14.60
2022-12-03T10:15:37.203Z,13.57
2022-12-03T10:20:38.716Z,14.60
2022-12-03T10:25:55.594Z,15.17
2022-12-03T10:30:58.471Z,13.77
2022-12-03T10:36:23.896Z,14.17
2022-12-03T10:41:28.465Z,12.93
2022-12-03T10:46:30.054Z,14.55
2022-12-03T10:51:31.899Z,15.07
2022-12-03T10:56:33.345Z,14.40
2022-12-03T11:01:34.862Z,15.27
2022-12-03T11:06:36.494Z,14.53
2022-12-03T11:11:38.041Z,15.07
2022-12-03T11:16:39.484Z,14.90
2022-12-03T11:22:07.129Z,16.73
2022-12-03T11:27:18.952Z,21.90
2022-12-03T11:32:38.814Z,17.47
2022-12-03T11:37:40.787Z,17.33
2022-12-03T11:42:43.147Z,22.37
2022-12-03T11:47:46.001Z,18.60
2022-12-03T11:52:52.885Z,26.90
2022-12-03T11:58:00.649Z,18.60
2022-12-03T12:03:02.228Z,16.47
2022-12-03T12:08:04.190Z,16.73
2022-12-03T12:13:06.985Z,15.97
2022-12-03T12:18:39.671Z,15.57
2022-12-03T12:23:41.178Z,16.40
2022-12-03T12:28:42.666Z,14.43
2022-12-03T12:33:44.173Z,16.00
2022-12-03T12:38:45.691Z,15.57
2022-12-03T12:43:47.150Z,15.80
2022-12-03T12:48:48.645Z,15.33
2022-12-03T12:53:50.206Z,16.00
2022-12-03T12:58:52.107Z,14.97
2022-12-03T13:03:54.337Z,16.23
2022-12-03T13:08:56.893Z,16.27
2022-12-03T13:13:58.386Z,14.63
2022-12-03T13:19:01.161Z,15.33
2022-12-03T13:24:19.946Z,14.73
2022-12-03T13:29:25.135Z,14.63
2022-12-03T13:34:31.568Z,14.30
2022-12-03T13:39:36.648Z,15.23
2022-12-03T13:44:45.421Z,13.90
2022-12-03T13:49:53.943Z,16.17
2022-12-03T13:54:56.636Z,16.27
2022-12-03T13:59:58.094Z,16.60
2022-12-03T14:05:00.731Z,17.70
2022-12-03T14:10:02.582Z,17.50
2022-12-03T14:15:06.205Z,14.97
2022-12-03T14:20:08.259Z,15.13
2022-12-03T14:25:10.703Z,14.67
2022-12-03T14:30:12.614Z,14.70
2022-12-03T14:35:14.167Z,15.77
2022-12-03T14:40:21.212Z,16.10
2022-12-03T14:45:24.220Z,17.10
2022-12-03T14:50:25.753Z,17.40
2022-12-03T14:55:27.458Z,17.97
2022-12-03T15:00:28.931Z,19.17
2022-12-03T15:05:30.416Z,17.43
2022-12-03T15:10:31.945Z,19.13
2022-12-03T15:15:33.457Z,18.77
2022-12-03T15:20:35.611Z,20.00
2022-12-03T15:25:37.101Z,18.53
2022-12-03T15:30:38.671Z,18.57
2022-12-03T15:35:41.565Z,19.53
2022-12-03T15:40:43.450Z,18.97
2022-12-03T15:45:45.163Z,18.40
2022-12-03T15:50:46.664Z,20.07
2022-12-03T15:55:48.133Z,21.10
2022-12-03T16:00:49.645Z,19.33
2022-12-03T16:05:51.161Z,19.93
2022-12-03T16:10:52.925Z,20.97
2022-12-03T16:15:54.465Z,23.23
2022-12-03T16:20:56.149Z,31.33
2022-12-03T16:25:57.627Z,26.70
2022-12-03T16:30:59.131Z,25.00
2022-12-03T16:36:00.629Z,25.90
2022-12-03T16:41:02.161Z,29.73
2022-12-03T16:46:21.016Z,23.97
2022-12-03T16:51:22.951Z,21.97
2022-12-03T16:56:24.449Z,22.43
2022-12-03T17:01:27.028Z,22.83
2022-12-03T17:06:28.695Z,20.93
2022-12-03T17:11:30.213Z,21.60
2022-12-03T17:16:31.668Z,21.10
2022-12-03T17:21:35.076Z,19.63
2022-12-03T17:26:36.805Z,19.53
2022-12-03T17:31:42.176Z,23.47
2022-12-03T17:36:44.313Z,28.07
2022-12-03T17:41:45.765Z,27.57
2022-12-03T17:46:47.268Z,28.90
2022-12-03T17:51:48.872Z,26.37
2022-12-03T17:56:50.367Z,26.10
2022-12-03T18:01:52.041Z,24.23
2022-12-03T18:06:57.525Z,27.23
2022-12-03T18:12:02.312Z,22.77
2022-12-03T18:17:03.906Z,22.93
2022-12-03T18:22:05.575Z,23.33
2022-12-03T18:27:07.195Z,25.20
2022-12-03T18:32:27.246Z,23.80
2022-12-03T18:37:31.775Z,22.00
2022-12-03T18:42:33.341Z,25.47
2022-12-03T18:47:34.898Z,22.87
2022-12-03T18:52:36.817Z,24.60
2022-12-03T18:57:38.290Z,22.47
2022-12-03T19:03:01.928Z,23.50
2022-12-03T19:08:01.953Z,24.10
2022-12-03T19:13:03.906Z,24.47
2022-12-03T19:18:07.420Z,25.13
2022-12-03T19:23:09.841Z,24.77
2022-12-03T19:28:11.394Z,25.23
2022-12-03T19:33:17.925Z,20.67
2022-12-03T19:38:19.823Z,22.23
2022-12-03T19:43:21.274Z,25.23
2022-12-03T19:48:23.169Z,22.63
2022-12-03T19:53:26.226Z,33.77
2022-12-03T19:58:27.723Z,23.30
2022-12-03T20:03:29.124Z,22.43
2022-12-03T20:08:30.646Z,23.73
2022-12-03T20:13:36.420Z,21.27
2022-12-03T20:18:42.226Z,23.47
2022-12-03T20:23:44.005Z,20.90
2022-12-03T20:28:47.869Z,23.80
2022-12-03T20:33:52.512Z,22.03
2022-12-03T20:38:59.842Z,20.35
2022-12-03T20:44:02.343Z,17.93
2022-12-03T20:49:05.497Z,17.77
2022-12-03T20:54:07.004Z,15.30
2022-12-03T20:59:12.543Z,16.27
2022-12-03T21:04:14.453Z,15.43
2022-12-03T21:09:16.005Z,14.70
2022-12-03T21:14:17.500Z,15.30
2022-12-03T21:19:20.319Z,14.83
2022-12-03T21:24:21.933Z,13.73
2022-12-03T21:29:24.047Z,13.63
2022-12-03T21:34:25.576Z,13.30
2022-12-03T21:39:27.074Z,10.93
2022-12-03T21:44:28.591Z,15.47
2022-12-03T21:49:30.020Z,15.80
2022-12-03T21:54:31.569Z,16.07
2022-12-03T21:59:33.363Z,15.10
2022-12-03T22:04:35.000Z,16.87
2022-12-03T22:09:36.763Z,19.50
2022-12-03T22:14:38.216Z,20.07
2022-12-03T22:19:39.920Z,21.43
2022-12-03T22:24:41.584Z,20.97
2022-12-03T22:29:43.061Z,21.67
2022-12-03T22:34:44.627Z,20.10
2022-12-03T22:39:46.136Z,19.50
2022-12-03T22:44:47.578Z,18.97
2022-12-03T22:49:49.154Z,21.43
2022-12-03T22:54:50.632Z,19.83
2022-12-03T22:59:52.271Z,18.87
2022-12-03T23:04:55.648Z,19.10
2022-12-03T23:09:57.324Z,19.03
2022-12-03T23:14:59.015Z,18.43
2022-12-03T23:20:00.573Z,19.53
2022-12-03T23:25:02.003Z,21.30
2022-12-03T23:30:04.191Z,20.80
2022-12-03T23:35:06.318Z,22.53
2022-12-03T23:40:08.112Z,23.90
2022-12-03T23:45:09.895Z,23.77
2022-12-03T23:50:11.844Z,23.57
2022-12-03T23:55:13.415Z,23.83
